sensor_id;sensor_type;location;lat;lon;timestamp;pressure;altitude;pressure_sealevel;temperature;humidity
10167;BME280;62970;53.130;8.244;2023-01-30T00:02:17;101265.97;;;3.13;67.81
10167;BME280;62970;53.130;8.244;2023-01-30T00:04:46;101262.53;;;3.15;67.88
10167;BME280;62970;53.130;8.244;2023-01-30T00:07:15;101240.22;;;3.17;67.72
10167;BME280;62970;53.130;8.244;2023-01-30T00:09:49;101243.69;;;3.19;67.65
10167;BME280;62970;53.130;8.244;2023-01-30T00:12:19;101235.97;;;3.20;67.57
10167;BME280;62970;53.130;8.244;2023-01-30T00:14:50;101233.44;;;3.22;68.04
10167;BME280;62970;53.130;8.244;2023-01-30T00:17:19;101213.66;;;3.22;68.13
10167;BME280;62970;53.130;8.244;2023-01-30T00:19:48;101210.28;;;3.25;68.17
10167;BME280;62970;53.130;8.244;2023-01-30T00:22:17;101198.28;;;3.27;67.69
10167;BME280;62970;53.130;8.244;2023-01-30T00:24:49;101191.41;;;3.29;67.70
10167;BME280;62970;53.130;8.244;2023-01-30T00:27:19;101191.44;;;3.30;68.00
10167;BME280;62970;53.130;8.244;2023-01-30T00:29:49;101169.13;;;3.32;67.96
10167;BME280;62970;53.130;8.244;2023-01-30T00:32:18;101165.72;;;3.35;67.86
10167;BME280;62970;53.130;8.244;2023-01-30T00:34:48;101151.13;;;3.35;68.17
10167;BME280;62970;53.130;8.244;2023-01-30T00:37:17;101157.16;;;3.37;68.26
10167;BME280;62970;53.130;8.244;2023-01-30T00:39:51;101165.75;;;3.38;68.22
10167;BME280;62970;53.130;8.244;2023-01-30T00:42:21;101146.91;;;3.42;68.12
10167;BME280;62970;53.130;8.244;2023-01-30T00:45:03;101146.03;;;3.43;68.42
10167;BME280;62970;53.130;8.244;2023-01-30T00:47:45;101127.16;;;3.44;67.98
10167;BME280;62970;53.130;8.244;2023-01-30T00:50:15;101121.16;;;3.47;68.46
10167;BME280;62970;53.130;8.244;2023-01-30T00:52:44;101120.34;;;3.49;68.48
10167;BME280;62970;53.130;8.244;2023-01-30T00:55:16;101118.63;;;3.50;68.48
10167;BME280;62970;53.130;8.244;2023-01-30T00:57:45;101105.75;;;3.53;68.22
10167;BME280;62970;53.130;8.244;2023-01-30T01:00:17;101104.94;;;3.55;68.51
10167;BME280;62970;53.130;8.244;2023-01-30T01:02:48;101087.75;;;3.57;68.09
10167;BME280;62970;53.130;8.244;2023-01-30T01:05:17;101085.22;;;3.60;68.38
10167;BME280;62970;53.130;8.244;2023-01-30T01:07:46;101080.09;;;3.63;68.41
10167;BME280;62970;53.130;8.244;2023-01-30T01:10:19;101080.97;;;3.65;68.55
10167;BME280;62970;53.130;8.244;2023-01-30T01:12:49;101061.19;;;3.67;68.35
10167;BME280;62970;53.130;8.244;2023-01-30T01:15:24;101054.34;;;3.69;68.28
10167;BME280;62970;53.130;8.244;2023-01-30T01:17:54;101042.31;;;3.71;68.31
10167;BME280;62970;53.130;8.244;2023-01-30T01:20:23;101053.53;;;3.75;68.21
10167;BME280;62970;53.130;8.244;2023-01-30T01:22:53;101038.06;;;3.76;68.65
10167;BME280;62970;53.130;8.244;2023-01-30T01:25:26;101044.97;;;3.77;68.20
10167;BME280;62970;53.130;8.244;2023-01-30T01:27:55;101033.78;;;3.78;68.60
10167;BME280;62970;53.130;8.244;2023-01-30T01:30:26;101032.09;;;3.81;68.28
10167;BME280;62970;53.130;8.244;2023-01-30T01:32:56;101015.75;;;3.80;68.64
10167;BME280;62970;53.130;8.244;2023-01-30T01:35:25;101026.94;;;3.84;68.78
10167;BME280;62970;53.130;8.244;2023-01-30T01:37:55;101032.13;;;3.85;68.67
10167;BME280;62970;53.130;8.244;2023-01-30T01:40:27;101020.09;;;3.86;68.53
10167;BME280;62970;53.130;8.244;2023-01-30T01:43:15;101033.00;;;3.87;68.29
10167;BME280;62970;53.130;8.244;2023-01-30T01:45:48;101026.97;;;3.88;68.79
10167;BME280;62970;53.130;8.244;2023-01-30T01:48:25;101016.66;;;3.88;68.32
10167;BME280;62970;53.130;8.244;2023-01-30T01:50:58;101013.22;;;3.89;68.95
10167;BME280;62970;53.130;8.244;2023-01-30T01:53:33;101009.78;;;3.89;68.86
10167;BME280;62970;53.130;8.244;2023-01-30T01:56:07;101014.09;;;3.88;68.89
10167;BME280;62970;53.130;8.244;2023-01-30T01:58:39;101001.19;;;3.88;68.69
10167;BME280;62970;53.130;8.244;2023-01-30T02:01:11;100998.59;;;3.88;68.72
10167;BME280;62970;53.130;8.244;2023-01-30T02:03:43;100998.59;;;3.88;68.72
10167;BME280;62970;53.130;8.244;2023-01-30T02:06:14;100989.16;;;3.89;69.32
10167;BME280;62970;53.130;8.244;2023-01-30T02:08:48;100990.88;;;3.88;69.21
10167;BME280;62970;53.130;8.244;2023-01-30T02:11:28;100981.41;;;3.89;68.98
10167;BME280;62970;53.130;8.244;2023-01-30T02:14:00;100979.69;;;3.89;69.43
10167;BME280;62970;53.130;8.244;2023-01-30T02:16:29;100973.69;;;3.90;69.21
10167;BME280;62970;53.130;8.244;2023-01-30T02:18:59;100979.72;;;3.92;69.65
10167;BME280;62970;53.130;8.244;2023-01-30T02:22:15;100965.94;;;3.92;69.11
10167;BME280;62970;53.130;8.244;2023-01-30T02:31:32;100946.19;;;3.94;69.33
10167;BME280;62970;53.130;8.244;2023-01-30T02:34:28;100931.56;;;3.94;69.44
10167;BME280;62970;53.130;8.244;2023-01-30T02:37:10;100928.13;;;3.97;69.56
10167;BME280;62970;53.130;8.244;2023-01-30T02:39:55;100931.59;;;3.97;69.76
10167;BME280;62970;53.130;8.244;2023-01-30T02:42:37;100924.72;;;3.99;69.52
10167;BME280;62970;53.130;8.244;2023-01-30T02:45:18;100923.00;;;4.01;69.89
10167;BME280;62970;53.130;8.244;2023-01-30T02:47:59;100914.41;;;4.04;69.70
10167;BME280;62970;53.130;8.244;2023-01-30T02:50:34;100909.25;;;4.04;70.11
10167;BME280;62970;53.130;8.244;2023-01-30T02:53:06;100900.66;;;4.06;69.92
10167;BME280;62970;53.130;8.244;2023-01-30T02:55:38;100907.56;;;4.09;70.22
10167;BME280;62970;53.130;8.244;2023-01-30T02:58:08;100892.94;;;4.09;69.93
10167;BME280;62970;53.130;8.244;2023-01-30T03:01:05;100913.59;;;4.13;70.24
10167;BME280;62970;53.130;8.244;2023-01-30T03:04:00;100898.97;;;4.15;69.81
10167;BME280;62970;53.130;8.244;2023-01-30T03:06:54;100895.53;;;4.14;69.82
10167;BME280;62970;53.130;8.244;2023-01-30T03:09:35;100899.84;;;4.17;70.15
10167;BME280;62970;53.130;8.244;2023-01-30T03:12:18;100893.84;;;4.19;70.47
10167;BME280;62970;53.130;8.244;2023-01-30T03:14:58;100889.56;;;4.21;70.45
10167;BME280;62970;53.130;8.244;2023-01-30T03:17:29;100889.56;;;4.23;70.68
10167;BME280;62970;53.130;8.244;2023-01-30T03:20:04;100893.88;;;4.25;70.32
10167;BME280;62970;53.130;8.244;2023-01-30T03:22:40;100891.28;;;4.27;70.69
10167;BME280;62970;53.130;8.244;2023-01-30T03:27:41;100881.00;;;4.31;70.97
10167;BME280;62970;53.130;8.244;2023-01-30T03:30:13;100877.56;;;4.34;70.95
10167;BME280;62970;53.130;8.244;2023-01-30T03:32:42;100872.41;;;4.35;70.79
10167;BME280;62970;53.130;8.244;2023-01-30T03:35:14;100867.22;;;4.37;70.85
10167;BME280;62970;53.130;8.244;2023-01-30T03:37:45;100869.81;;;4.40;70.75
10167;BME280;62970;53.130;8.244;2023-01-30T03:40:16;100868.13;;;4.42;71.18
10167;BME280;62970;53.130;8.244;2023-01-30T03:42:45;100873.28;;;4.45;71.09
10167;BME280;62970;53.130;8.244;2023-01-30T03:45:14;100871.56;;;4.47;70.88
10167;BME280;62970;53.130;8.244;2023-01-30T03:47:43;100862.97;;;4.50;71.32
10167;BME280;62970;53.130;8.244;2023-01-30T03:50:16;100863.84;;;4.53;71.34
10167;BME280;62970;53.130;8.244;2023-01-30T03:52:45;100870.72;;;4.56;71.53
10167;BME280;62970;53.130;8.244;2023-01-30T03:55:15;100871.59;;;4.58;71.48
10167;BME280;62970;53.130;8.244;2023-01-30T03:57:44;100877.63;;;4.60;71.54
10167;BME280;62970;53.130;8.244;2023-01-30T04:00:15;100875.91;;;4.63;71.12
10167;BME280;62970;53.130;8.244;2023-01-30T04:02:44;100863.88;;;4.65;71.50
10167;BME280;62970;53.130;8.244;2023-01-30T04:05:16;100867.31;;;4.67;71.40
10167;BME280;62970;53.130;8.244;2023-01-30T04:07:45;100882.81;;;4.70;71.51
10167;BME280;62970;53.130;8.244;2023-01-30T04:10:16;100857.84;;;4.71;71.56
10167;BME280;62970;53.130;8.244;2023-01-30T04:12:46;100878.53;;;4.75;71.67
10167;BME280;62970;53.130;8.244;2023-01-30T04:15:15;100864.75;;;4.77;71.59
10167;BME280;62970;53.130;8.244;2023-01-30T04:17:44;100881.13;;;4.79;71.64
10167;BME280;62970;53.130;8.244;2023-01-30T04:20:16;100882.84;;;4.78;71.31
10167;BME280;62970;53.130;8.244;2023-01-30T04:22:45;100878.56;;;4.82;71.23
10167;BME280;62970;53.130;8.244;2023-01-30T04:25:15;100872.53;;;4.81;71.66
10167;BME280;62970;53.130;8.244;2023-01-30T04:27:44;100878.56;;;4.82;71.31
10167;BME280;62970;53.130;8.244;2023-01-30T04:30:14;100887.19;;;4.82;71.60
10167;BME280;62970;53.130;8.244;2023-01-30T04:32:43;100878.56;;;4.82;71.23
10167;BME280;62970;53.130;8.244;2023-01-30T04:35:15;100874.22;;;4.79;71.17
10167;BME280;62970;53.130;8.244;2023-01-30T04:37:44;100884.56;;;4.78;71.62
10167;BME280;62970;53.130;8.244;2023-01-30T04:40:14;100894.03;;;4.75;71.36
10167;BME280;62970;53.130;8.244;2023-01-30T04:42:43;100886.28;;;4.72;71.35
10167;BME280;62970;53.130;8.244;2023-01-30T04:45:13;100891.44;;;4.68;70.96
10167;BME280;62970;53.130;8.244;2023-01-30T04:47:42;100883.66;;;4.63;71.21
10167;BME280;62970;53.130;8.244;2023-01-30T04:50:11;100883.66;;;4.60;71.33
10167;BME280;62970;53.130;8.244;2023-01-30T04:52:43;100886.25;;;4.57;71.26
10167;BME280;62970;53.130;8.244;2023-01-30T04:55:12;100896.56;;;4.54;70.91
10167;BME280;62970;53.130;8.244;2023-01-30T04:57:42;100893.97;;;4.51;70.80
10167;BME280;62970;53.130;8.244;2023-01-30T05:00:13;100891.38;;;4.48;70.97
10167;BME280;62970;53.130;8.244;2023-01-30T05:02:42;100901.69;;;4.43;70.66
10167;BME280;62970;53.130;8.244;2023-01-30T05:05:11;100893.06;;;4.40;70.94
10167;BME280;62970;53.130;8.244;2023-01-30T05:07:44;100892.19;;;4.32;70.98
10167;BME280;62970;53.130;8.244;2023-01-30T05:10:13;100887.00;;;4.26;70.80
10167;BME280;62970;53.130;8.244;2023-01-30T05:12:43;100888.69;;;4.21;70.64
10167;BME280;62970;53.130;8.244;2023-01-30T05:15:13;100896.41;;;4.18;70.22
10167;BME280;62970;53.130;8.244;2023-01-30T05:17:42;100898.09;;;4.09;70.81
10167;BME280;62970;53.130;8.244;2023-01-30T05:20:13;100898.91;;;4.02;70.54
10167;BME280;62970;53.130;8.244;2023-01-30T05:22:45;100920.38;;;3.95;70.55
10167;BME280;62970;53.130;8.244;2023-01-30T05:25:14;100916.03;;;3.88;70.93
10167;BME280;62970;53.130;8.244;2023-01-30T05:27:43;100911.72;;;3.83;71.04
10167;BME280;62970;53.130;8.244;2023-01-30T05:30:13;100916.84;;;3.80;71.11
10167;BME280;62970;53.130;8.244;2023-01-30T05:32:42;100905.66;;;3.76;70.80
10167;BME280;62970;53.130;8.244;2023-01-30T05:35:11;100909.91;;;3.71;71.07
10167;BME280;62970;53.130;8.244;2023-01-30T05:37:41;100903.88;;;3.69;70.90
10167;BME280;62970;53.130;8.244;2023-01-30T05:40:13;100912.47;;;3.68;70.93
10167;BME280;62970;53.130;8.244;2023-01-30T05:42:42;100918.50;;;3.68;71.22
10167;BME280;62970;53.130;8.244;2023-01-30T05:45:11;100909.03;;;3.67;71.19
10167;BME280;62970;53.130;8.244;2023-01-30T05:47:41;100915.91;;;3.67;70.96
10167;BME280;62970;53.130;8.244;2023-01-30T05:50:11;100915.03;;;3.66;71.10
10167;BME280;62970;53.130;8.244;2023-01-30T05:52:40;100913.31;;;3.64;71.12
10167;BME280;62970;53.130;8.244;2023-01-30T05:55:12;100920.19;;;3.63;70.68
10167;BME280;62970;53.130;8.244;2023-01-30T05:57:41;100916.75;;;3.64;70.82
10167;BME280;62970;53.130;8.244;2023-01-30T06:00:12;100926.22;;;3.65;70.92
10167;BME280;62970;53.130;8.244;2023-01-30T06:02:42;100919.34;;;3.67;70.83
10167;BME280;62970;53.130;8.244;2023-01-30T06:05:11;100929.69;;;3.69;71.22
10167;BME280;62970;53.130;8.244;2023-01-30T06:07:41;100935.69;;;3.69;71.08
10167;BME280;62970;53.130;8.244;2023-01-30T06:10:14;100935.69;;;3.69;70.84
10167;BME280;62970;53.130;8.244;2023-01-30T06:12:43;100933.13;;;3.69;70.78
10167;BME280;62970;53.130;8.244;2023-01-30T06:15:13;100933.94;;;3.65;70.77
10167;BME280;62970;53.130;8.244;2023-01-30T06:17:42;100917.59;;;3.62;70.25
10167;BME280;62970;53.130;8.244;2023-01-30T06:20:12;100933.03;;;3.56;70.15
10167;BME280;62970;53.130;8.244;2023-01-30T06:22:43;100920.94;;;3.49;70.06
10167;BME280;62970;53.130;8.244;2023-01-30T06:25:15;100914.88;;;3.42;69.99
10167;BME280;62970;53.130;8.244;2023-01-30T06:27:45;100917.38;;;3.36;70.52
10167;BME280;62970;53.130;8.244;2023-01-30T06:30:15;100927.66;;;3.31;70.55
10167;BME280;62970;53.130;8.244;2023-01-30T06:32:44;100919.03;;;3.26;70.57
10167;BME280;62970;53.130;8.244;2023-01-30T06:35:17;100920.72;;;3.23;70.49
10167;BME280;62970;53.130;8.244;2023-01-30T06:37:46;100913.81;;;3.20;70.33
10167;BME280;62970;53.130;8.244;2023-01-30T06:40:19;100905.25;;;3.21;70.58
10167;BME280;62970;53.130;8.244;2023-01-30T06:42:48;100905.25;;;3.23;70.25
10167;BME280;62970;53.130;8.244;2023-01-30T06:45:18;100915.56;;;3.23;70.23
10167;BME280;62970;53.130;8.244;2023-01-30T06:47:50;100912.16;;;3.25;70.13
10167;BME280;62970;53.130;8.244;2023-01-30T06:50:22;100918.16;;;3.24;70.46
10167;BME280;62970;53.130;8.244;2023-01-30T06:52:53;100918.16;;;3.24;70.38
10167;BME280;62970;53.130;8.244;2023-01-30T06:55:26;100924.16;;;3.23;70.37
10167;BME280;62970;53.130;8.244;2023-01-30T06:58:03;100916.44;;;3.25;70.23
10167;BME280;62970;53.130;8.244;2023-01-30T07:00:34;100914.72;;;3.25;70.07
10167;BME280;62970;53.130;8.244;2023-01-30T07:03:10;100925.88;;;3.24;69.98
10167;BME280;62970;53.130;8.244;2023-01-30T07:05:41;100924.16;;;3.23;70.11
10167;BME280;62970;53.130;8.244;2023-01-30T07:08:14;100920.72;;;3.23;69.78
10167;BME280;62970;53.130;8.244;2023-01-30T07:10:46;100929.31;;;3.22;69.65
10167;BME280;62970;53.130;8.244;2023-01-30T07:13:15;100931.88;;;3.23;69.79
10167;BME280;62970;53.130;8.244;2023-01-30T07:15:45;100929.34;;;3.28;70.07
10167;BME280;62970;53.130;8.244;2023-01-30T07:18:14;100923.38;;;3.33;70.06
10167;BME280;62970;53.130;8.244;2023-01-30T07:20:46;100925.16;;;3.39;70.30
10167;BME280;62970;53.130;8.244;2023-01-30T07:23:16;100927.75;;;3.43;70.38
10167;BME280;62970;53.130;8.244;2023-01-30T12:37:34;100991.50;;;5.21;67.09
10167;BME280;62970;53.130;8.244;2023-01-30T12:40:18;100986.28;;;4.98;67.04
10167;BME280;62970;53.130;8.244;2023-01-30T12:43:14;101002.53;;;4.77;67.50
10167;BME280;62970;53.130;8.244;2023-01-30T12:46:01;101003.34;;;4.59;67.81
10167;BME280;62970;53.130;8.244;2023-01-30T12:48:54;101006.72;;;4.46;68.36
10167;BME280;62970;53.130;8.244;2023-01-30T12:51:45;101012.69;;;4.36;68.38
10167;BME280;62970;53.130;8.244;2023-01-30T12:54:34;101022.13;;;4.32;68.74
10167;BME280;62970;53.130;8.244;2023-01-30T12:57:17;101019.53;;;4.31;69.49
10167;BME280;62970;53.130;8.244;2023-01-30T13:00:00;101013.50;;;4.29;69.33
10167;BME280;62970;53.130;8.244;2023-01-30T13:02:48;101021.22;;;4.27;69.66
10167;BME280;62970;53.130;8.244;2023-01-30T13:05:33;101035.88;;;4.30;69.71
10167;BME280;62970;53.130;8.244;2023-01-30T13:08:32;101025.59;;;4.36;69.85
10167;BME280;62970;53.130;8.244;2023-01-30T13:11:22;101037.69;;;4.46;70.42
10167;BME280;62970;53.130;8.244;2023-01-30T13:14:06;101044.66;;;4.56;70.38
10167;BME280;62970;53.130;8.244;2023-01-30T13:16:57;101049.00;;;4.65;69.94
10167;BME280;62970;53.130;8.244;2023-01-30T13:19:32;101056.78;;;4.74;70.30
10167;BME280;62970;53.130;8.244;2023-01-30T13:22:10;101048.25;;;4.83;69.80
10167;BME280;62970;53.130;8.244;2023-01-30T13:24:59;101066.38;;;4.90;70.13
10167;BME280;62970;53.130;8.244;2023-01-30T13:27:37;101062.09;;;4.98;69.92
10167;BME280;62970;53.130;8.244;2023-01-30T13:30:16;101066.44;;;5.05;69.97
10167;BME280;62970;53.130;8.244;2023-01-30T13:32:48;101076.78;;;5.13;69.16
10167;BME280;62970;53.130;8.244;2023-01-30T13:35:24;101064.75;;;5.18;69.44
10167;BME280;62970;53.130;8.244;2023-01-30T13:37:57;101052.69;;;5.23;69.13
10167;BME280;62970;53.130;8.244;2023-01-30T13:40:29;101067.38;;;5.32;69.00
10167;BME280;62970;53.130;8.244;2023-01-30T13:43:10;101080.34;;;5.40;68.58
10167;BME280;62970;53.130;8.244;2023-01-30T13:45:45;101087.28;;;5.47;68.60
10167;BME280;62970;53.130;8.244;2023-01-30T13:48:30;101081.25;;;5.52;68.23
10167;BME280;62970;53.130;8.244;2023-01-30T13:51:19;101094.19;;;5.57;67.85
10167;BME280;62970;53.130;8.244;2023-01-30T13:54:00;101109.72;;;5.60;68.09
10167;BME280;62970;53.130;8.244;2023-01-30T13:56:38;101121.81;;;5.64;67.58
10167;BME280;62970;53.130;8.244;2023-01-30T13:59:21;101139.06;;;5.65;67.85
10167;BME280;62970;53.130;8.244;2023-01-30T14:02:18;101146.81;;;5.66;66.89
10167;BME280;62970;53.130;8.244;2023-01-30T14:04:50;101139.91;;;5.67;66.88
10167;BME280;62970;53.130;8.244;2023-01-30T14:07:27;101158.91;;;5.67;67.25
10167;BME280;62970;53.130;8.244;2023-01-30T14:10:13;101164.94;;;5.68;66.90
10167;BME280;62970;53.130;8.244;2023-01-30T14:12:46;101164.06;;;5.70;66.62
10167;BME280;62970;53.130;8.244;2023-01-30T14:15:29;101175.28;;;5.71;67.01
10167;BME280;62970;53.130;8.244;2023-01-30T14:18:03;101172.72;;;5.73;66.66
10167;BME280;62970;53.130;8.244;2023-01-30T14:20:35;101193.41;;;5.74;66.43
10167;BME280;62970;53.130;8.244;2023-01-30T14:23:20;101193.41;;;5.77;66.32
10167;BME280;62970;53.130;8.244;2023-01-30T14:25:51;101198.59;;;5.79;66.35
10167;BME280;62970;53.130;8.244;2023-01-30T14:28:44;101203.78;;;5.79;66.22
10167;BME280;62970;53.130;8.244;2023-01-30T14:31:52;101233.13;;;5.79;66.19
10167;BME280;62970;53.130;8.244;2023-01-30T14:34:49;101228.81;;;5.81;65.78
10167;BME280;62970;53.130;8.244;2023-01-30T14:37:47;101234.84;;;5.82;65.82
10167;BME280;62970;53.130;8.244;2023-01-30T14:40:40;101251.22;;;5.81;65.88
10167;BME280;62970;53.130;8.244;2023-01-30T14:43:50;101252.97;;;5.82;65.99
10167;BME280;62970;53.130;8.244;2023-01-30T14:46:42;101260.72;;;5.83;66.25
10167;BME280;62970;53.130;8.244;2023-01-30T14:49:38;101256.41;;;5.82;65.73
10167;BME280;62970;53.130;8.244;2023-01-30T14:55:19;101278.84;;;5.83;65.43
10167;BME280;62970;53.130;8.244;2023-01-30T14:58:00;101291.78;;;5.82;65.81
10167;BME280;62970;53.130;8.244;2023-01-30T15:00:34;101291.78;;;5.80;65.60
10167;BME280;62970;53.130;8.244;2023-01-30T15:03:14;101296.97;;;5.82;65.46
10167;BME280;62970;53.130;8.244;2023-01-30T15:05:49;101296.97;;;5.83;65.23
10167;BME280;62970;53.130;8.244;2023-01-30T15:08:21;101315.94;;;5.82;64.40
10167;BME280;62970;53.130;8.244;2023-01-30T15:11:04;101330.59;;;5.82;65.33
10167;BME280;62970;53.130;8.244;2023-01-30T15:13:56;101338.34;;;5.77;65.89
10167;BME280;62970;53.130;8.244;2023-01-30T15:17:03;101345.19;;;5.69;65.58
10167;BME280;62970;53.130;8.244;2023-01-30T15:19:57;101360.69;;;5.63;65.52
10167;BME280;62970;53.130;8.244;2023-01-30T15:25:56;101382.19;;;5.51;65.20
10167;BME280;62970;53.130;8.244;2023-01-30T15:28:42;101381.28;;;5.46;65.05
10167;BME280;62970;53.130;8.244;2023-01-30T15:31:16;101381.22;;;5.38;64.59
10167;BME280;62970;53.130;8.244;2023-01-30T15:33:48;101406.19;;;5.35;64.73
10167;BME280;62970;53.130;8.244;2023-01-30T15:36:23;101402.69;;;5.31;64.75
10167;BME280;62970;53.130;8.244;2023-01-30T15:39:14;101426.81;;;5.30;64.96
10167;BME280;62970;53.130;8.244;2023-01-30T15:41:44;101436.31;;;5.31;65.16
10167;BME280;62970;53.130;8.244;2023-01-30T15:44:48;101442.34;;;5.32;64.96
10167;BME280;62970;53.130;8.244;2023-01-30T15:47:35;101446.66;;;5.31;64.43
10167;BME280;62970;53.130;8.244;2023-01-30T15:50:09;101456.09;;;5.25;64.42
10167;BME280;62970;53.130;8.244;2023-01-30T15:52:42;101443.09;;;5.19;64.58
10167;BME280;62970;53.130;8.244;2023-01-30T15:55:21;101455.09;;;5.12;64.47
10167;BME280;62970;53.130;8.244;2023-01-30T15:58:04;101468.81;;;5.03;64.88
10167;BME280;62970;53.130;8.244;2023-01-30T16:00:38;101473.03;;;4.97;64.71
10167;BME280;62970;53.130;8.244;2023-01-30T16:03:13;101465.22;;;4.91;64.66
10167;BME280;62970;53.130;8.244;2023-01-30T16:05:46;101484.13;;;4.85;65.04
10167;BME280;62970;53.130;8.244;2023-01-30T16:08:21;101479.75;;;4.81;64.69
10167;BME280;62970;53.130;8.244;2023-01-30T16:10:54;101496.03;;;4.75;64.96
10167;BME280;62970;53.130;8.244;2023-01-30T16:13:27;101496.00;;;4.72;64.79
10167;BME280;62970;53.130;8.244;2023-01-30T16:16:01;101499.41;;;4.70;65.35
10167;BME280;62970;53.130;8.244;2023-01-30T16:18:36;101511.50;;;4.72;65.45
10167;BME280;62970;53.130;8.244;2023-01-30T16:21:15;101523.59;;;4.77;65.68
10167;BME280;62970;53.130;8.244;2023-01-30T16:23:53;101525.34;;;4.79;65.31
10167;BME280;62970;53.130;8.244;2023-01-30T16:26:26;101515.88;;;4.80;65.65
10167;BME280;62970;53.130;8.244;2023-01-30T16:29:01;101543.41;;;4.76;65.14
10167;BME280;62970;53.130;8.244;2023-01-30T16:31:36;101539.03;;;4.70;65.13
10167;BME280;62970;53.130;8.244;2023-01-30T16:34:24;101538.84;;;4.57;65.44
10167;BME280;62970;53.130;8.244;2023-01-30T16:37:02;101555.06;;;4.45;65.29
10167;BME280;62970;53.130;8.244;2023-01-30T16:39:34;101546.28;;;4.34;65.54
10167;BME280;62970;53.130;8.244;2023-01-30T16:42:24;101558.19;;;4.23;65.35
10167;BME280;62970;53.130;8.244;2023-01-30T16:45:19;101564.06;;;4.13;65.78
10167;BME280;62970;53.130;8.244;2023-01-30T16:48:22;101588.78;;;3.98;65.81
10167;BME280;62970;53.130;8.244;2023-01-30T16:51:21;101586.88;;;3.88;65.86
10167;BME280;62970;53.130;8.244;2023-01-30T16:54:00;101597.91;;;3.80;66.25
10167;BME280;62970;53.130;8.244;2023-01-30T16:56:31;101596.94;;;3.73;66.11
10167;BME280;62970;53.130;8.244;2023-01-30T16:59:04;101608.03;;;3.67;66.65
10167;BME280;62970;53.130;8.244;2023-01-30T17:01:37;101606.25;;;3.63;66.28
10167;BME280;62970;53.130;8.244;2023-01-30T17:04:18;101613.88;;;3.59;66.48
10167;BME280;62970;53.130;8.244;2023-01-30T17:06:54;101613.00;;;3.57;66.47
10167;BME280;62970;53.130;8.244;2023-01-30T17:09:41;101627.59;;;3.56;66.40
10167;BME280;62970;53.130;8.244;2023-01-30T17:12:37;101631.84;;;3.54;66.30
10167;BME280;62970;53.130;8.244;2023-01-30T17:15:34;101643.00;;;3.52;66.70
10167;BME280;62970;53.130;8.244;2023-01-30T17:18:04;101632.66;;;3.52;66.56
10167;BME280;62970;53.130;8.244;2023-01-30T17:20:40;101640.41;;;3.52;66.57
10167;BME280;62970;53.130;8.244;2023-01-30T17:23:18;101643.03;;;3.55;66.41
10167;BME280;62970;53.130;8.244;2023-01-30T17:25:48;101635.34;;;3.56;66.21
10167;BME280;62970;53.130;8.244;2023-01-30T17:28:21;101639.66;;;3.57;66.20
10167;BME280;62970;53.130;8.244;2023-01-30T17:30:53;101650.81;;;3.56;66.69
10167;BME280;62970;53.130;8.244;2023-01-30T17:33:22;101652.53;;;3.56;66.45
10167;BME280;62970;53.130;8.244;2023-01-30T17:35:52;101649.03;;;3.54;66.18
10167;BME280;62970;53.130;8.244;2023-01-30T17:38:21;101651.59;;;3.52;66.28
10167;BME280;62970;53.130;8.244;2023-01-30T17:40:50;101647.25;;;3.50;66.30
10167;BME280;62970;53.130;8.244;2023-01-30T17:43:19;101642.03;;;3.47;66.50
10167;BME280;62970;53.130;8.244;2023-01-30T17:45:50;101641.13;;;3.44;66.83
10167;BME280;62970;53.130;8.244;2023-01-30T17:48:22;101641.97;;;3.43;66.89
10167;BME280;62970;53.130;8.244;2023-01-30T17:50:51;101653.94;;;3.40;66.53
10167;BME280;62970;53.130;8.244;2023-01-30T17:53:20;101660.78;;;3.38;66.82
10167;BME280;62970;53.130;8.244;2023-01-30T17:55:49;101662.41;;;3.34;66.89
10167;BME280;62970;53.130;8.244;2023-01-30T17:58:19;101670.16;;;3.34;66.98
10167;BME280;62970;53.130;8.244;2023-01-30T18:00:48;101666.69;;;3.32;67.18
10167;BME280;62970;53.130;8.244;2023-01-30T18:03:18;101672.69;;;3.33;66.94
10167;BME280;62970;53.130;8.244;2023-01-30T18:05:51;101671.81;;;3.31;66.85
10167;BME280;62970;53.130;8.244;2023-01-30T18:08:21;101671.00;;;3.33;66.81
10167;BME280;62970;53.130;8.244;2023-01-30T18:10:51;101674.41;;;3.32;67.05
10167;BME280;62970;53.130;8.244;2023-01-30T18:13:21;101678.72;;;3.33;66.98
10167;BME280;62970;53.130;8.244;2023-01-30T18:16:08;101684.69;;;3.31;66.73
10167;BME280;62970;53.130;8.244;2023-01-30T18:18:41;101683.84;;;3.32;66.70
10167;BME280;62970;53.130;8.244;2023-01-30T18:21:13;101691.56;;;3.30;67.17
10167;BME280;62970;53.130;8.244;2023-01-30T18:23:44;101690.69;;;3.30;66.96
10167;BME280;62970;53.130;8.244;2023-01-30T18:26:16;101712.19;;;3.30;66.83
10167;BME280;62970;53.130;8.244;2023-01-30T18:28:48;101713.94;;;3.33;66.91
10167;BME280;62970;53.130;8.244;2023-01-30T18:31:19;101707.97;;;3.34;66.66
10167;BME280;62970;53.130;8.244;2023-01-30T18:33:51;101719.16;;;3.34;66.49
10167;BME280;62970;53.130;8.244;2023-01-30T18:36:23;101722.56;;;3.33;66.46
10167;BME280;62970;53.130;8.244;2023-01-30T18:38:53;101718.28;;;3.34;66.51
10167;BME280;62970;53.130;8.244;2023-01-30T18:41:24;101738.06;;;3.35;66.59
10167;BME280;62970;53.130;8.244;2023-01-30T18:43:54;101725.16;;;3.35;66.26
10167;BME280;62970;53.130;8.244;2023-01-30T18:46:25;101732.00;;;3.33;66.47
10167;BME280;62970;53.130;8.244;2023-01-30T18:48:55;101742.28;;;3.31;66.05
10167;BME280;62970;53.130;8.244;2023-01-30T18:51:30;101752.53;;;3.28;66.73
10167;BME280;62970;53.130;8.244;2023-01-30T18:54:00;101750.72;;;3.24;66.40
10167;BME280;62970;53.130;8.244;2023-01-30T18:56:32;101757.56;;;3.22;66.22
10167;BME280;62970;53.130;8.244;2023-01-30T18:59:04;101770.41;;;3.21;66.53
10167;BME280;62970;53.130;8.244;2023-01-30T19:01:37;101773.84;;;3.21;66.19
10167;BME280;62970;53.130;8.244;2023-01-30T19:04:09;101766.16;;;3.23;66.31
10167;BME280;62970;53.130;8.244;2023-01-30T19:06:42;101772.31;;;3.29;66.54
10167;BME280;62970;53.130;8.244;2023-01-30T19:09:13;101774.22;;;3.38;66.48
10167;BME280;62970;53.130;8.244;2023-01-30T19:11:44;101780.41;;;3.46;66.62